sensor_id;sensor_type;location;lat;lon;timestamp;P1;durP1;ratioP1;P2;durP2;ratioP2
7931;SDS011;4011;49.424;10.894;2023-07-31T00:00:03;3.60;;;3.00;;
7931;SDS011;4011;49.424;10.894;2023-07-31T00:05:29;4.00;;;2.97;;
7931;SDS011;4011;49.424;10.894;2023-07-31T00:10:53;4.68;;;2.80;;
7931;SDS011;4011;49.424;10.894;2023-07-31T00:16:16;5.60;;;3.03;;
7931;SDS011;4011;49.424;10.894;2023-07-31T00:21:41;4.13;;;2.90;;
7931;SDS011;4011;49.424;10.894;2023-07-31T00:27:03;4.05;;;3.05;;
7931;SDS011;4011;49.424;10.894;2023-07-31T00:32:28;4.55;;;2.83;;
7931;SDS011;4011;49.424;10.894;2023-07-31T00:38:04;4.30;;;3.28;;
7931;SDS011;4011;49.424;10.894;2023-07-31T00:43:29;4.20;;;2.70;;
7931;SDS011;4011;49.424;10.894;2023-07-31T00:48:51;4.43;;;2.50;;
7931;SDS011;4011;49.424;10.894;2023-07-31T00:54:15;4.22;;;2.88;;
7931;SDS011;4011;49.424;10.894;2023-07-31T00:59:43;4.25;;;2.90;;
7931;SDS011;4011;49.424;10.894;2023-07-31T01:05:07;3.88;;;2.60;;
7931;SDS011;4011;49.424;10.894;2023-07-31T01:10:30;4.97;;;2.58;;
7931;SDS011;4011;49.424;10.894;2023-07-31T01:15:55;4.10;;;2.85;;
7931;SDS011;4011;49.424;10.894;2023-07-31T01:21:21;4.45;;;2.78;;
7931;SDS011;4011;49.424;10.894;2023-07-31T01:26:47;3.88;;;2.78;;
7931;SDS011;4011;49.424;10.894;2023-07-31T01:32:10;3.30;;;2.40;;
7931;SDS011;4011;49.424;10.894;2023-07-31T01:37:34;4.00;;;2.60;;
7931;SDS011;4011;49.424;10.894;2023-07-31T01:42:57;4.75;;;2.50;;
7931;SDS011;4011;49.424;10.894;2023-07-31T01:48:19;3.38;;;2.13;;
7931;SDS011;4011;49.424;10.894;2023-07-31T01:53:40;3.95;;;2.40;;
7931;SDS011;4011;49.424;10.894;2023-07-31T02:04:50;2.65;;;2.03;;
7931;SDS011;4011;49.424;10.894;2023-07-31T02:10:12;3.35;;;2.30;;
7931;SDS011;4011;49.424;10.894;2023-07-31T02:15:34;5.57;;;2.72;;
7931;SDS011;4011;49.424;10.894;2023-07-31T02:20:56;4.07;;;2.40;;
7931;SDS011;4011;49.424;10.894;2023-07-31T02:26:18;4.35;;;2.20;;
7931;SDS011;4011;49.424;10.894;2023-07-31T02:31:39;3.33;;;2.17;;
7931;SDS011;4011;49.424;10.894;2023-07-31T02:37:02;3.20;;;2.13;;
7931;SDS011;4011;49.424;10.894;2023-07-31T02:42:23;3.90;;;2.60;;
7931;SDS011;4011;49.424;10.894;2023-07-31T02:47:45;3.72;;;2.10;;
7931;SDS011;4011;49.424;10.894;2023-07-31T02:53:07;3.20;;;1.95;;
7931;SDS011;4011;49.424;10.894;2023-07-31T02:58:29;3.55;;;2.10;;
7931;SDS011;4011;49.424;10.894;2023-07-31T03:03:50;4.22;;;2.50;;
7931;SDS011;4011;49.424;10.894;2023-07-31T03:09:13;3.63;;;2.00;;
7931;SDS011;4011;49.424;10.894;2023-07-31T03:14:35;4.07;;;2.10;;
7931;SDS011;4011;49.424;10.894;2023-07-31T03:19:57;4.60;;;2.35;;
7931;SDS011;4011;49.424;10.894;2023-07-31T03:25:20;3.63;;;2.20;;
7931;SDS011;4011;49.424;10.894;2023-07-31T03:30:42;4.20;;;2.42;;
7931;SDS011;4011;49.424;10.894;2023-07-31T03:36:05;5.35;;;2.28;;
7931;SDS011;4011;49.424;10.894;2023-07-31T03:41:50;3.70;;;2.00;;
7931;SDS011;4011;49.424;10.894;2023-07-31T03:47:17;2.92;;;1.85;;
7931;SDS011;4011;49.424;10.894;2023-07-31T03:52:43;3.13;;;1.77;;
7931;SDS011;4011;49.424;10.894;2023-07-31T03:58:16;4.80;;;2.17;;
7931;SDS011;4011;49.424;10.894;2023-07-31T04:03:49;3.17;;;2.03;;
7931;SDS011;4011;49.424;10.894;2023-07-31T04:09:13;2.50;;;1.77;;
7931;SDS011;4011;49.424;10.894;2023-07-31T04:14:45;3.40;;;2.15;;
7931;SDS011;4011;49.424;10.894;2023-07-31T04:20:10;4.43;;;2.15;;
7931;SDS011;4011;49.424;10.894;2023-07-31T04:25:48;3.63;;;1.83;;
7931;SDS011;4011;49.424;10.894;2023-07-31T04:31:13;3.88;;;2.58;;
7931;SDS011;4011;49.424;10.894;2023-07-31T04:36:41;5.43;;;2.20;;
7931;SDS011;4011;49.424;10.894;2023-07-31T04:42:09;5.32;;;2.25;;
7931;SDS011;4011;49.424;10.894;2023-07-31T04:47:37;4.65;;;2.45;;
7931;SDS011;4011;49.424;10.894;2023-07-31T04:53:04;5.85;;;2.30;;
7931;SDS011;4011;49.424;10.894;2023-07-31T04:58:25;3.83;;;2.10;;
7931;SDS011;4011;49.424;10.894;2023-07-31T05:03:48;5.00;;;2.38;;
7931;SDS011;4011;49.424;10.894;2023-07-31T05:09:09;5.60;;;2.47;;
7931;SDS011;4011;49.424;10.894;2023-07-31T05:14:31;5.13;;;2.40;;
7931;SDS011;4011;49.424;10.894;2023-07-31T05:19:54;3.63;;;2.30;;
7931;SDS011;4011;49.424;10.894;2023-07-31T05:25:15;5.10;;;2.38;;
7931;SDS011;4011;49.424;10.894;2023-07-31T05:30:37;4.97;;;2.35;;
7931;SDS011;4011;49.424;10.894;2023-07-31T05:35:59;4.95;;;2.30;;
7931;SDS011;4011;49.424;10.894;2023-07-31T05:41:21;3.63;;;2.17;;
7931;SDS011;4011;49.424;10.894;2023-07-31T05:46:42;3.53;;;1.90;;
7931;SDS011;4011;49.424;10.894;2023-07-31T05:52:06;3.33;;;2.15;;
7931;SDS011;4011;49.424;10.894;2023-07-31T05:57:27;3.83;;;2.40;;
7931;SDS011;4011;49.424;10.894;2023-07-31T06:02:49;5.32;;;2.35;;
7931;SDS011;4011;49.424;10.894;2023-07-31T06:08:12;3.63;;;1.90;;
7931;SDS011;4011;49.424;10.894;2023-07-31T06:13:34;4.22;;;1.85;;
7931;SDS011;4011;49.424;10.894;2023-07-31T06:18:55;5.00;;;2.55;;
7931;SDS011;4011;49.424;10.894;2023-07-31T06:24:18;4.78;;;2.40;;
7931;SDS011;4011;49.424;10.894;2023-07-31T06:29:40;4.00;;;2.22;;
7931;SDS011;4011;49.424;10.894;2023-07-31T06:35:02;4.30;;;2.20;;
7931;SDS011;4011;49.424;10.894;2023-07-31T06:40:25;3.90;;;2.60;;
7931;SDS011;4011;49.424;10.894;2023-07-31T06:45:46;7.28;;;2.83;;
7931;SDS011;4011;49.424;10.894;2023-07-31T06:51:10;3.83;;;2.00;;
7931;SDS011;4011;49.424;10.894;2023-07-31T06:56:33;4.32;;;2.15;;
7931;SDS011;4011;49.424;10.894;2023-07-31T07:01:55;6.30;;;2.42;;
7931;SDS011;4011;49.424;10.894;2023-07-31T07:07:17;4.60;;;2.63;;
7931;SDS011;4011;49.424;10.894;2023-07-31T07:12:39;4.32;;;2.42;;
7931;SDS011;4011;49.424;10.894;2023-07-31T07:18:01;5.00;;;2.45;;
7931;SDS011;4011;49.424;10.894;2023-07-31T07:23:23;4.95;;;2.50;;
7931;SDS011;4011;49.424;10.894;2023-07-31T07:28:47;5.93;;;2.95;;
7931;SDS011;4011;49.424;10.894;2023-07-31T07:34:09;5.43;;;2.40;;
7931;SDS011;4011;49.424;10.894;2023-07-31T07:39:30;4.95;;;2.65;;
7931;SDS011;4011;49.424;10.894;2023-07-31T07:44:53;5.85;;;2.58;;
7931;SDS011;4011;49.424;10.894;2023-07-31T07:50:14;4.32;;;2.70;;
7931;SDS011;4011;49.424;10.894;2023-07-31T07:55:35;4.65;;;2.45;;
7931;SDS011;4011;49.424;10.894;2023-07-31T08:00:58;5.00;;;2.50;;
7931;SDS011;4011;49.424;10.894;2023-07-31T08:06:19;3.72;;;2.35;;
7931;SDS011;4011;49.424;10.894;2023-07-31T08:11:42;4.72;;;2.60;;
7931;SDS011;4011;49.424;10.894;2023-07-31T08:17:05;5.80;;;2.75;;
7931;SDS011;4011;49.424;10.894;2023-07-31T08:22:26;4.88;;;2.30;;
7931;SDS011;4011;49.424;10.894;2023-07-31T08:27:48;4.55;;;2.55;;
7931;SDS011;4011;49.424;10.894;2023-07-31T08:33:14;4.40;;;2.42;;
7931;SDS011;4011;49.424;10.894;2023-07-31T08:38:35;4.78;;;2.80;;
7931;SDS011;4011;49.424;10.894;2023-07-31T08:43:56;3.58;;;2.10;;
7931;SDS011;4011;49.424;10.894;2023-07-31T08:49:20;4.40;;;2.20;;
7931;SDS011;4011;49.424;10.894;2023-07-31T08:54:41;3.65;;;2.22;;
7931;SDS011;4011;49.424;10.894;2023-07-31T09:00:03;4.28;;;2.70;;
7931;SDS011;4011;49.424;10.894;2023-07-31T09:05:26;5.10;;;2.30;;
7931;SDS011;4011;49.424;10.894;2023-07-31T09:10:49;5.85;;;2.40;;
7931;SDS011;4011;49.424;10.894;2023-07-31T09:16:11;4.35;;;2.45;;
7931;SDS011;4011;49.424;10.894;2023-07-31T09:21:34;4.28;;;2.38;;
7931;SDS011;4011;49.424;10.894;2023-07-31T09:27:08;4.22;;;2.35;;
7931;SDS011;4011;49.424;10.894;2023-07-31T09:32:30;4.55;;;2.20;;
7931;SDS011;4011;49.424;10.894;2023-07-31T09:37:55;6.78;;;2.80;;
7931;SDS011;4011;49.424;10.894;2023-07-31T09:43:17;4.20;;;2.40;;
7931;SDS011;4011;49.424;10.894;2023-07-31T09:48:39;4.30;;;2.20;;
7931;SDS011;4011;49.424;10.894;2023-07-31T09:54:02;4.72;;;2.08;;
7931;SDS011;4011;49.424;10.894;2023-07-31T09:59:23;5.05;;;2.55;;
7931;SDS011;4011;49.424;10.894;2023-07-31T10:04:45;5.63;;;2.58;;
7931;SDS011;4011;49.424;10.894;2023-07-31T10:10:09;4.80;;;2.50;;
7931;SDS011;4011;49.424;10.894;2023-07-31T10:15:31;6.20;;;2.40;;
7931;SDS011;4011;49.424;10.894;2023-07-31T10:20:53;6.15;;;2.60;;
7931;SDS011;4011;49.424;10.894;2023-07-31T10:26:17;5.60;;;2.63;;
7931;SDS011;4011;49.424;10.894;2023-07-31T10:31:40;6.03;;;2.67;;
7931;SDS011;4011;49.424;10.894;2023-07-31T10:37:24;4.65;;;2.50;;
7931;SDS011;4011;49.424;10.894;2023-07-31T10:42:47;5.47;;;2.70;;
7931;SDS011;4011;49.424;10.894;2023-07-31T10:48:12;5.78;;;2.67;;
7931;SDS011;4011;49.424;10.894;2023-07-31T10:53:33;4.10;;;2.30;;
7931;SDS011;4011;49.424;10.894;2023-07-31T10:59:01;5.20;;;2.63;;
7931;SDS011;4011;49.424;10.894;2023-07-31T11:04:24;4.60;;;3.15;;
7931;SDS011;4011;49.424;10.894;2023-07-31T11:09:46;4.85;;;2.80;;
7931;SDS011;4011;49.424;10.894;2023-07-31T11:15:10;4.30;;;2.30;;
7931;SDS011;4011;49.424;10.894;2023-07-31T11:20:32;4.93;;;2.35;;
7931;SDS011;4011;49.424;10.894;2023-07-31T11:25:53;4.60;;;2.47;;
7931;SDS011;4011;49.424;10.894;2023-07-31T11:31:21;3.88;;;2.50;;
7931;SDS011;4011;49.424;10.894;2023-07-31T11:36:52;4.22;;;2.50;;
7931;SDS011;4011;49.424;10.894;2023-07-31T11:42:15;4.90;;;2.38;;
7931;SDS011;4011;49.424;10.894;2023-07-31T11:47:39;3.72;;;2.47;;
7931;SDS011;4011;49.424;10.894;2023-07-31T11:53:03;4.45;;;2.38;;
7931;SDS011;4011;49.424;10.894;2023-07-31T11:58:24;4.93;;;2.30;;
7931;SDS011;4011;49.424;10.894;2023-07-31T12:03:48;5.03;;;2.50;;
7931;SDS011;4011;49.424;10.894;2023-07-31T12:09:10;5.22;;;2.85;;
7931;SDS011;4011;49.424;10.894;2023-07-31T12:14:32;5.22;;;2.88;;
7931;SDS011;4011;49.424;10.894;2023-07-31T12:19:54;4.28;;;2.30;;
7931;SDS011;4011;49.424;10.894;2023-07-31T12:25:16;3.90;;;2.40;;
7931;SDS011;4011;49.424;10.894;2023-07-31T12:30:38;4.10;;;2.60;;
7931;SDS011;4011;49.424;10.894;2023-07-31T12:36:02;4.95;;;2.35;;
7931;SDS011;4011;49.424;10.894;2023-07-31T12:41:23;4.88;;;2.50;;
7931;SDS011;4011;49.424;10.894;2023-07-31T12:46:45;4.47;;;2.30;;
7931;SDS011;4011;49.424;10.894;2023-07-31T12:52:08;4.85;;;2.78;;
7931;SDS011;4011;49.424;10.894;2023-07-31T12:57:29;5.50;;;2.70;;
7931;SDS011;4011;49.424;10.894;2023-07-31T13:02:51;5.68;;;2.58;;
7931;SDS011;4011;49.424;10.894;2023-07-31T13:08:14;3.95;;;2.40;;
7931;SDS011;4011;49.424;10.894;2023-07-31T13:13:37;5.65;;;2.97;;
7931;SDS011;4011;49.424;10.894;2023-07-31T13:18:59;5.20;;;2.85;;
7931;SDS011;4011;49.424;10.894;2023-07-31T13:24:21;4.53;;;2.50;;
7931;SDS011;4011;49.424;10.894;2023-07-31T13:29:43;5.47;;;2.38;;
7931;SDS011;4011;49.424;10.894;2023-07-31T13:35:05;5.97;;;2.47;;
7931;SDS011;4011;49.424;10.894;2023-07-31T13:40:27;4.68;;;2.90;;
7931;SDS011;4011;49.424;10.894;2023-07-31T13:45:49;4.57;;;2.60;;
7931;SDS011;4011;49.424;10.894;2023-07-31T13:51:10;5.47;;;2.65;;
7931;SDS011;4011;49.424;10.894;2023-07-31T13:56:33;4.78;;;2.45;;
7931;SDS011;4011;49.424;10.894;2023-07-31T14:01:55;5.50;;;3.05;;
7931;SDS011;4011;49.424;10.894;2023-07-31T14:07:16;4.88;;;2.55;;
7931;SDS011;4011;49.424;10.894;2023-07-31T14:12:39;4.90;;;2.45;;
7931;SDS011;4011;49.424;10.894;2023-07-31T14:18:01;5.00;;;2.70;;
7931;SDS011;4011;49.424;10.894;2023-07-31T14:23:23;7.57;;;2.90;;
7931;SDS011;4011;49.424;10.894;2023-07-31T14:28:45;4.90;;;3.00;;
7931;SDS011;4011;49.424;10.894;2023-07-31T14:34:07;4.75;;;2.60;;
7931;SDS011;4011;49.424;10.894;2023-07-31T14:39:28;6.57;;;2.78;;
7931;SDS011;4011;49.424;10.894;2023-07-31T14:44:51;5.95;;;2.97;;
7931;SDS011;4011;49.424;10.894;2023-07-31T14:50:12;6.38;;;3.08;;
7931;SDS011;4011;49.424;10.894;2023-07-31T14:55:34;4.72;;;3.00;;
7931;SDS011;4011;49.424;10.894;2023-07-31T15:00:57;6.63;;;2.80;;
7931;SDS011;4011;49.424;10.894;2023-07-31T15:06:18;4.55;;;2.58;;
7931;SDS011;4011;49.424;10.894;2023-07-31T15:11:39;4.15;;;2.72;;
7931;SDS011;4011;49.424;10.894;2023-07-31T15:17:02;4.93;;;3.13;;
7931;SDS011;4011;49.424;10.894;2023-07-31T15:22:24;4.88;;;2.45;;
7931;SDS011;4011;49.424;10.894;2023-07-31T15:27:45;6.80;;;2.95;;
7931;SDS011;4011;49.424;10.894;2023-07-31T15:33:08;6.57;;;2.90;;
7931;SDS011;4011;49.424;10.894;2023-07-31T15:38:30;5.38;;;3.10;;
7931;SDS011;4011;49.424;10.894;2023-07-31T15:43:51;6.15;;;3.45;;
7931;SDS011;4011;49.424;10.894;2023-07-31T15:49:14;5.72;;;3.28;;
7931;SDS011;4011;49.424;10.894;2023-07-31T15:54:36;6.53;;;3.58;;
7931;SDS011;4011;49.424;10.894;2023-07-31T15:59:57;7.55;;;3.40;;
7931;SDS011;4011;49.424;10.894;2023-07-31T16:05:20;6.15;;;3.42;;
7931;SDS011;4011;49.424;10.894;2023-07-31T16:10:42;7.07;;;3.20;;
7931;SDS011;4011;49.424;10.894;2023-07-31T16:16:03;7.20;;;3.03;;
7931;SDS011;4011;49.424;10.894;2023-07-31T16:21:26;6.25;;;3.25;;
7931;SDS011;4011;49.424;10.894;2023-07-31T16:26:48;7.53;;;3.20;;
7931;SDS011;4011;49.424;10.894;2023-07-31T16:32:09;6.30;;;3.25;;
7931;SDS011;4011;49.424;10.894;2023-07-31T16:37:32;5.43;;;2.83;;
7931;SDS011;4011;49.424;10.894;2023-07-31T16:42:54;5.82;;;3.00;;
7931;SDS011;4011;49.424;10.894;2023-07-31T16:48:16;4.78;;;3.15;;
7931;SDS011;4011;49.424;10.894;2023-07-31T16:53:43;6.10;;;3.53;;
7931;SDS011;4011;49.424;10.894;2023-07-31T16:59:08;6.88;;;2.88;;
7931;SDS011;4011;49.424;10.894;2023-07-31T17:04:29;5.78;;;3.08;;
7931;SDS011;4011;49.424;10.894;2023-07-31T17:09:53;5.15;;;3.20;;
7931;SDS011;4011;49.424;10.894;2023-07-31T17:15:16;7.43;;;3.25;;
7931;SDS011;4011;49.424;10.894;2023-07-31T17:20:37;6.90;;;2.95;;
7931;SDS011;4011;49.424;10.894;2023-07-31T17:26:00;6.07;;;2.90;;
7931;SDS011;4011;49.424;10.894;2023-07-31T17:31:21;7.43;;;3.40;;
7931;SDS011;4011;49.424;10.894;2023-07-31T17:36:43;6.25;;;3.42;;
7931;SDS011;4011;49.424;10.894;2023-07-31T17:42:06;5.72;;;2.80;;
7931;SDS011;4011;49.424;10.894;2023-07-31T17:47:29;5.25;;;2.63;;
7931;SDS011;4011;49.424;10.894;2023-07-31T17:52:50;6.07;;;3.00;;
7931;SDS011;4011;49.424;10.894;2023-07-31T17:58:14;6.03;;;3.33;;
7931;SDS011;4011;49.424;10.894;2023-07-31T18:03:36;6.05;;;3.08;;
7931;SDS011;4011;49.424;10.894;2023-07-31T18:08:57;6.10;;;3.40;;
7931;SDS011;4011;49.424;10.894;2023-07-31T18:14:23;5.88;;;3.25;;
7931;SDS011;4011;49.424;10.894;2023-07-31T18:19:46;6.97;;;3.83;;
7931;SDS011;4011;49.424;10.894;2023-07-31T18:25:08;5.05;;;2.92;;
7931;SDS011;4011;49.424;10.894;2023-07-31T18:30:31;5.78;;;3.10;;
7931;SDS011;4011;49.424;10.894;2023-07-31T18:35:53;5.20;;;3.13;;
7931;SDS011;4011;49.424;10.894;2023-07-31T18:41:14;5.55;;;3.58;;
7931;SDS011;4011;49.424;10.894;2023-07-31T18:46:37;4.75;;;3.35;;
7931;SDS011;4011;49.424;10.894;2023-07-31T18:51:58;5.97;;;3.13;;
7931;SDS011;4011;49.424;10.894;2023-07-31T18:57:20;4.95;;;3.00;;
7931;SDS011;4011;49.424;10.894;2023-07-31T19:02:44;4.43;;;3.05;;
7931;SDS011;4011;49.424;10.894;2023-07-31T19:08:05;5.95;;;3.60;;
7931;SDS011;4011;49.424;10.894;2023-07-31T19:13:27;5.80;;;3.10;;
7931;SDS011;4011;49.424;10.894;2023-07-31T19:18:50;4.90;;;3.20;;
7931;SDS011;4011;49.424;10.894;2023-07-31T19:24:11;5.97;;;3.42;;
7931;SDS011;4011;49.424;10.894;2023-07-31T19:29:33;6.78;;;3.60;;
7931;SDS011;4011;49.424;10.894;2023-07-31T19:34:56;6.93;;;3.55;;
7931;SDS011;4011;49.424;10.894;2023-07-31T19:40:19;5.30;;;3.30;;
7931;SDS011;4011;49.424;10.894;2023-07-31T19:45:41;4.82;;;3.30;;
7931;SDS011;4011;49.424;10.894;2023-07-31T19:51:06;5.32;;;3.65;;
7931;SDS011;4011;49.424;10.894;2023-07-31T19:56:28;7.40;;;3.13;;
7931;SDS011;4011;49.424;10.894;2023-07-31T20:02:01;4.60;;;3.20;;
7931;SDS011;4011;49.424;10.894;2023-07-31T20:07:33;7.05;;;3.78;;
7931;SDS011;4011;49.424;10.894;2023-07-31T20:12:59;5.43;;;3.40;;
7931;SDS011;4011;49.424;10.894;2023-07-31T20:18:26;5.65;;;3.38;;
7931;SDS011;4011;49.424;10.894;2023-07-31T20:23:53;5.45;;;3.35;;
7931;SDS011;4011;49.424;10.894;2023-07-31T20:29:24;6.25;;;3.72;;
7931;SDS011;4011;49.424;10.894;2023-07-31T20:34:57;5.60;;;3.40;;
7931;SDS011;4011;49.424;10.894;2023-07-31T20:40:24;6.90;;;3.75;;
7931;SDS011;4011;49.424;10.894;2023-07-31T20:45:45;5.03;;;3.53;;
7931;SDS011;4011;49.424;10.894;2023-07-31T20:51:07;4.85;;;2.88;;
7931;SDS011;4011;49.424;10.894;2023-07-31T20:56:30;5.57;;;3.22;;
7931;SDS011;4011;49.424;10.894;2023-07-31T21:01:53;5.40;;;3.17;;
7931;SDS011;4011;49.424;10.894;2023-07-31T21:07:15;6.28;;;3.53;;
7931;SDS011;4011;49.424;10.894;2023-07-31T21:12:38;5.60;;;3.15;;
7931;SDS011;4011;49.424;10.894;2023-07-31T21:18:00;5.85;;;2.85;;
7931;SDS011;4011;49.424;10.894;2023-07-31T21:23:23;6.47;;;3.50;;
7931;SDS011;4011;49.424;10.894;2023-07-31T21:28:45;5.45;;;3.20;;
7931;SDS011;4011;49.424;10.894;2023-07-31T21:34:07;8.52;;;3.65;;
7931;SDS011;4011;49.424;10.894;2023-07-31T21:39:28;5.95;;;3.45;;
7931;SDS011;4011;49.424;10.894;2023-07-31T21:44:52;6.38;;;3.10;;
7931;SDS011;4011;49.424;10.894;2023-07-31T21:50:13;5.22;;;3.50;;
7931;SDS011;4011;49.424;10.894;2023-07-31T21:55:35;5.05;;;2.78;;
7931;SDS011;4011;49.424;10.894;2023-07-31T22:01:02;5.20;;;2.70;;
7931;SDS011;4011;49.424;10.894;2023-07-31T22:06:27;4.85;;;2.78;;
7931;SDS011;4011;49.424;10.894;2023-07-31T22:11:48;5.40;;;3.40;;
7931;SDS011;4011;49.424;10.894;2023-07-31T22:17:11;4.93;;;2.88;;
7931;SDS011;4011;49.424;10.894;2023-07-31T22:22:33;5.22;;;3.25;;
7931;SDS011;4011;49.424;10.894;2023-07-31T22:27:55;6.32;;;3.30;;
7931;SDS011;4011;49.424;10.894;2023-07-31T22:33:18;4.55;;;3.22;;
7931;SDS011;4011;49.424;10.894;2023-07-31T22:38:39;5.43;;;2.90;;
7931;SDS011;4011;49.424;10.894;2023-07-31T22:44:03;5.65;;;3.10;;
7931;SDS011;4011;49.424;10.894;2023-07-31T22:49:27;4.68;;;2.85;;
7931;SDS011;4011;49.424;10.894;2023-07-31T22:54:48;4.85;;;3.22;;
7931;SDS011;4011;49.424;10.894;2023-07-31T23:00:10;4.43;;;2.88;;
7931;SDS011;4011;49.424;10.894;2023-07-31T23:05:34;4.65;;;3.20;;
7931;SDS011;4011;49.424;10.894;2023-07-31T23:16:43;5.15;;;2.88;;
7931;SDS011;4011;49.424;10.894;2023-07-31T23:22:07;5.05;;;3.08;;
7931;SDS011;4011;49.424;10.894;2023-07-31T23:27:29;4.60;;;2.90;;
7931;SDS011;4011;49.424;10.894;2023-07-31T23:32:50;5.78;;;3.47;;
7931;SDS011;4011;49.424;10.894;2023-07-31T23:38:13;6.15;;;3.20;;
7931;SDS011;4011;49.424;10.894;2023-07-31T23:43:35;5.97;;;3.20;;
7931;SDS011;4011;49.424;10.894;2023-07-31T23:48:56;5.18;;;3.13;;
7931;SDS011;4011;49.424;10.894;2023-07-31T23:54:19;4.82;;;3.10;;
7931;SDS011;4011;49.424;10.894;2023-07-31T23:59:41;5.32;;;3.17;;
